Time;durP1;ratioP1;P1;durP2;ratioP2;P2;SDS_P1;SDS_P2;PMS_P1;PMS_P2;Temp;Humidity;BMP_temperature;BMP_pressure;BME280_temperature;BME280_humidity;BME280_pressure;Samples;Min_cycle;Max_cycle;Signal;HPM_P1;HPM_P2
2022/03/05 00:04:42;;;;;;;19.48;13.10;;;;;;;-1.62;91.70;100785.59;10464038;28;20401;-71
2022/03/05 00:09:44;;;;;;;13.77;12.18;;;;;;;-1.62;91.55;100789.03;10464328;28;20099;-71
2022/03/05 00:14:46;;;;;;;12.95;11.70;;;;;;;-1.45;89.73;100786.09;10463016;28;20049;-70
2022/03/05 00:19:47;;;;;;;13.00;11.88;;;;;;;-1.51;90.04;100794.50;10463276;28;20070;-72
2022/03/05 00:24:50;;;;;;;15.18;10.23;;;;;;;-1.41;90.49;100793.09;10444016;28;20067;-72
2022/03/05 00:29:52;;;;;;;14.52;12.52;;;;;;;-1.12;88.35;100794.75;10461548;28;20040;-71
2022/03/05 00:34:54;;;;;;;11.73;10.60;;;;;;;-1.23;88.35;100795.31;10461245;28;20094;-72
2022/03/05 00:39:55;;;;;;;14.15;11.70;;;;;;;-1.35;89.34;100794.13;10461877;28;20044;-71
2022/03/05 00:44:57;;;;;;;12.32;11.07;;;;;;;-1.35;89.52;100788.09;10461097;28;20558;-71
2022/03/05 00:49:59;;;;;;;12.00;10.85;;;;;;;-1.64;90.27;100785.56;10461303;28;20041;-71
2022/03/05 00:55:01;;;;;;;14.65;11.65;;;;;;;-1.40;90.29;100785.38;10461456;28;20505;-72
2022/03/05 01:00:05;;;;;;;11.98;10.77;;;;;;;-1.67;90.64;100797.47;10442169;28;20056;-71
2022/03/05 01:05:07;;;;;;;12.80;11.70;;;;;;;-1.88;91.54;100808.00;10459318;28;20045;-71
2022/03/05 01:10:09;;;;;;;13.35;11.23;;;;;;;-1.68;92.95;100796.59;10459526;28;20037;-71
2022/03/05 01:15:11;;;;;;;13.20;11.63;;;;;;;-1.30;89.52;100792.53;10459834;28;20045;-71
2022/03/05 01:20:13;;;;;;;13.15;9.95;;;;;;;-1.40;88.61;100798.28;10460107;28;20044;-71
2022/03/05 01:25:15;;;;;;;14.02;11.23;;;;;;;-1.38;89.20;100798.31;10459181;28;20128;-71
2022/03/05 01:30:16;;;;;;;12.77;11.57;;;;;;;-1.48;89.90;100810.06;10459172;28;20045;-71
2022/03/05 01:35:18;;;;;;;12.57;11.43;;;;;;;-1.52;90.73;100806.50;10459704;28;20041;-71
2022/03/05 01:40:20;;;;;;;13.05;11.68;;;;;;;-1.66;92.26;100807.81;10441702;28;20049;-71
2022/03/05 01:45:21;;;;;;;13.27;12.07;;;;;;;-1.70;92.83;100808.56;10457560;28;20114;-71
2022/03/05 01:50:24;;;;;;;15.10;12.27;;;;;;;-0.98;90.67;100804.56;10458247;28;20036;-71
2022/03/05 01:55:26;;;;;;;14.95;11.27;;;;;;;-1.22;89.61;100800.50;10458862;28;20049;-72
2022/03/05 02:00:28;;;;;;;13.32;11.93;;;;;;;-1.53;91.07;100786.72;10459463;28;20044;-70
2022/03/05 02:05:29;;;;;;;13.15;11.85;;;;;;;-1.00;90.38;100791.66;10459269;28;20470;-71
2022/03/05 02:10:31;;;;;;;13.90;12.63;;;;;;;-1.19;90.09;100785.13;10459707;28;20049;-71
2022/03/05 02:15:33;;;;;;;13.18;11.82;;;;;;;-1.00;90.24;100783.91;10459310;28;20091;-71
2022/03/05 02:20:39;;;;;;;13.63;12.20;;;;;;;-1.17;90.00;100783.44;10439972;28;20135;-71
2022/03/05 02:26:10;;;;;;;13.88;12.35;;;;;;;-1.32;91.94;100775.28;10458115;28;20048;-71
2022/03/05 02:31:12;;;;;;;12.57;11.48;;;;;;;-1.36;92.42;100771.75;10291475;28;20055;-71
2022/03/05 02:36:14;;;;;;;15.05;12.40;;;;;;;-1.39;93.11;100771.66;10291844;28;20162;-71
2022/03/05 02:41:18;;;;;;;13.73;12.52;;;;;;;-1.31;93.27;100775.31;10292903;28;20061;-71
2022/03/05 02:46:25;;;;;;;13.57;12.38;;;;;;;-1.37;92.97;100777.75;10291379;28;20074;-70
2022/03/05 02:51:28;;;;;;;15.05;11.88;;;;;;;-0.96;90.99;100775.41;10290381;28;20051;-70
2022/03/05 02:56:29;;;;;;;13.25;11.98;;;;;;;-1.21;90.32;100765.25;10291262;28;20046;-71
2022/03/05 03:01:31;;;;;;;13.93;12.60;;;;;;;-1.14;91.73;100760.31;10297777;28;20066;-70
2022/03/05 03:06:33;;;;;;;13.85;12.40;;;;;;;-1.20;90.08;100761.84;10374359;28;20049;-71
2022/03/05 03:11:35;;;;;;;14.13;12.80;;;;;;;-1.53;91.01;100771.25;10464616;28;20387;-71
2022/03/05 03:16:37;;;;;;;16.83;15.13;;;;;;;-1.54;92.15;100760.91;10463921;28;20045;-71
2022/03/05 03:21:38;;;;;;;15.73;14.05;;;;;;;-1.57;92.38;100763.38;10463418;28;20045;-71
2022/03/05 03:26:40;;;;;;;13.93;12.75;;;;;;;-1.50;92.77;100767.91;10463561;28;20048;-71
2022/03/05 03:31:42;;;;;;;15.07;13.77;;;;;;;-1.56;92.63;100768.59;10463033;28;20049;-71
2022/03/05 03:36:44;;;;;;;15.98;14.48;;;;;;;-1.67;92.88;100769.13;10463436;28;20433;-72
2022/03/05 03:41:45;;;;;;;15.38;13.38;;;;;;;-1.69;92.97;100760.44;10462672;28;20513;-71
2022/03/05 03:46:47;;;;;;;15.48;14.07;;;;;;;-1.66;93.19;100763.13;10462701;28;20044;-70
2022/03/05 03:51:49;;;;;;;15.88;14.32;;;;;;;-1.26;91.68;100765.13;10463171;28;20094;-71
2022/03/05 03:56:50;;;;;;;15.38;13.27;;;;;;;-1.50;89.66;100765.31;10449610;22;20076;-71
2022/03/05 04:01:52;;;;;;;14.40;13.10;;;;;;;-1.71;91.54;100767.28;10419588;28;20522;-71
2022/03/05 04:12:14;;;;;;;15.25;13.13;;;;;;;-1.63;91.79;100768.38;10400125;28;20049;-71
2022/03/05 04:17:16;;;;;;;15.63;13.65;;;;;;;-1.86;92.56;100770.25;10418381;28;20491;-71
2022/03/05 04:22:18;;;;;;;16.10;14.43;;;;;;;-1.83;93.01;100772.94;10418600;28;20046;-71
2022/03/05 04:27:19;;;;;;;14.98;13.68;;;;;;;-1.81;93.55;100771.28;10401890;28;20398;-71
2022/03/05 04:32:21;;;;;;;14.73;13.27;;;;;;;-1.88;93.57;100767.63;10418104;28;20050;-69
2022/03/05 04:37:23;;;;;;;15.70;14.23;;;;;;;-1.94;93.80;100769.16;10417913;28;20033;-70
2022/03/05 04:42:25;;;;;;;16.35;14.25;;;;;;;-1.90;94.29;100769.31;10399976;28;20053;-70
2022/03/05 04:47:26;;;;;;;18.15;14.48;;;;;;;-1.13;90.55;100772.38;10399282;28;20046;-70
2022/03/05 04:52:28;;;;;;;17.02;15.50;;;;;;;-1.44;90.26;100775.81;10417370;28;20061;-70
2022/03/05 04:57:29;;;;;;;16.63;14.45;;;;;;;-1.68;92.40;100780.22;10399746;28;20430;-70
2022/03/05 05:02:31;;;;;;;19.65;16.30;;;;;;;-1.50;93.78;100778.22;10417297;28;20069;-70
2022/03/05 05:07:33;;;;;;;17.00;14.70;;;;;;;-1.19;91.52;100777.38;10416850;28;20402;-71
2022/03/05 05:12:35;;;;;;;18.27;16.27;;;;;;;-1.55;92.07;100779.75;10416644;28;20150;-70
2022/03/05 05:17:38;;;;;;;22.70;17.17;;;;;;;-1.73;93.08;100779.22;10417000;28;20621;-70
2022/03/05 05:22:39;;;;;;;24.00;17.02;;;;;;;-1.73;94.27;100793.00;10416436;28;20111;-70
2022/03/05 05:27:41;;;;;;;16.55;15.13;;;;;;;-1.69;94.48;100794.81;10397939;28;20038;-70
2022/03/05 05:32:43;;;;;;;15.80;14.40;;;;;;;-1.76;94.66;100800.66;10416251;28;20041;-71
2022/03/05 05:37:45;;;;;;;17.08;15.43;;;;;;;-1.79;95.09;100803.13;10415809;28;20506;-71
2022/03/05 05:42:46;;;;;;;17.58;15.98;;;;;;;-1.86;94.93;100802.06;10398505;28;20049;-71
2022/03/05 05:47:48;;;;;;;22.77;16.67;;;;;;;-1.90;95.17;100797.66;10399724;28;20585;-71
2022/03/05 05:52:50;;;;;;;19.48;17.42;;;;;;;-1.83;95.18;100807.31;10415469;28;20053;-71
2022/03/05 05:57:51;;;;;;;19.25;17.23;;;;;;;-1.81;94.87;100805.66;10415565;28;20383;-71
2022/03/05 06:02:53;;;;;;;17.67;16.08;;;;;;;-1.80;94.87;100809.13;10397996;28;20076;-71
2022/03/05 06:07:56;;;;;;;22.05;17.42;;;;;;;-1.77;95.04;100806.63;10414832;28;20490;-71
2022/03/05 06:12:57;;;;;;;18.40;16.60;;;;;;;-1.49;92.79;100816.06;10415017;28;20132;-71
2022/03/05 06:17:59;;;;;;;15.90;14.38;;;;;;;-1.39;90.93;100812.91;10397557;28;20041;-71
2022/03/05 06:23:01;;;;;;;16.15;14.75;;;;;;;-1.63;92.44;100818.22;10415641;28;20046;-71
2022/03/05 06:28:02;;;;;;;17.52;15.95;;;;;;;-1.36;92.53;100825.03;10415911;28;20060;-70
2022/03/05 06:33:04;;;;;;;19.70;17.30;;;;;;;-1.50;91.40;100828.91;10400651;28;20422;-70
2022/03/05 06:38:06;;;;;;;16.90;15.38;;;;;;;-1.65;93.02;100835.34;10422961;28;20517;-70
2022/03/05 06:43:07;;;;;;;22.50;19.23;;;;;;;-1.49;93.81;100833.25;10422356;28;20041;-71
2022/03/05 06:48:09;;;;;;;25.45;18.30;;;;;;;-1.58;93.83;100833.84;10421724;28;20132;-71
2022/03/05 06:53:11;;;;;;;29.48;20.13;;;;;;;-1.50;93.97;100836.66;10404506;28;20111;-72
2022/03/05 06:58:14;;;;;;;23.42;20.92;;;;;;;-1.55;93.82;100836.47;10421747;28;20042;-71
2022/03/05 07:03:16;;;;;;;24.33;20.52;;;;;;;-1.57;93.46;100843.31;10421320;28;20045;-71
2022/03/05 07:08:18;;;;;;;22.02;19.80;;;;;;;-1.46;92.97;100841.94;10421715;28;20130;-71
2022/03/05 07:13:19;;;;;;;21.90;19.63;;;;;;;-1.59;93.64;100842.41;10420862;28;20060;-71
2022/03/05 07:18:21;;;;;;;22.58;20.08;;;;;;;-1.44;93.12;100839.41;10420505;28;20545;-71
2022/03/05 07:23:23;;;;;;;22.30;20.00;;;;;;;-1.54;93.48;100848.56;10423187;28;20053;-70
2022/03/05 07:28:25;;;;;;;24.00;21.50;;;;;;;-1.43;93.48;100857.47;10424064;28;20064;-70
2022/03/05 07:33:26;;;;;;;22.67;20.45;;;;;;;-1.37;93.59;100860.25;10422988;28;20088;-70
2022/03/05 07:38:28;;;;;;;23.13;21.13;;;;;;;-1.28;93.41;100863.13;10427302;28;20091;-70
2022/03/05 07:43:29;;;;;;;24.75;22.40;;;;;;;-1.31;93.37;100863.00;10424199;28;20103;-70
2022/03/05 07:48:31;;;;;;;21.70;19.95;;;;;;;-1.25;93.42;100864.88;10388663;28;20388;-70
2022/03/05 07:53:33;;;;;;;24.17;21.75;;;;;;;-1.07;93.31;100868.00;10423361;28;20049;-71
2022/03/05 07:58:35;;;;;;;21.25;19.27;;;;;;;-0.91;92.95;100871.03;10423498;28;20487;-70
2022/03/05 08:03:36;;;;;;;26.10;21.98;;;;;;;-0.88;92.57;100869.41;10422408;28;20041;-71
2022/03/05 08:08:38;;;;;;;23.98;21.58;;;;;;;-0.76;93.30;100876.59;10404182;28;20064;-72
2022/03/05 08:13:40;;;;;;;27.10;22.35;;;;;;;-0.54;92.53;100870.31;10422192;28;20029;-71
2022/03/05 08:18:42;;;;;;;25.88;23.27;;;;;;;-0.51;92.61;100873.84;10421155;28;20046;-71
2022/03/05 08:23:44;;;;;;;27.02;24.05;;;;;;;-0.28;91.21;100869.28;10420466;28;20053;-72
2022/03/05 08:28:46;;;;;;;23.17;21.13;;;;;;;0.19;90.01;100867.00;10403008;28;20462;-70
2022/03/05 08:33:48;;;;;;;23.38;20.85;;;;;;;0.65;87.31;100859.38;10421726;28;20380;-73
2022/03/05 08:38:50;;;;;;;23.30;19.45;;;;;;;0.87;86.44;100860.72;10420328;28;20490;-72
2022/03/05 08:43:51;;;;;;;22.55;20.35;;;;;;;1.15;83.87;100860.44;10420794;28;20057;-71
2022/03/05 08:48:53;;;;;;;20.00;17.88;;;;;;;1.32;82.36;100852.97;10461222;28;20048;-71
2022/03/05 08:53:55;;;;;;;19.65;17.85;;;;;;;1.38;84.79;100860.88;10460195;28;20099;-72
2022/03/05 08:58:58;;;;;;;15.15;13.80;;;;;;;1.52;82.56;100868.91;10460419;28;20041;-71
2022/03/05 09:04:02;;;;;;;13.43;12.13;;;;;;;1.69;79.75;100869.22;10459109;28;20049;-71
2022/03/05 09:09:05;;;;;;;13.65;12.43;;;;;;;2.18;77.24;100872.63;10459492;28;20067;-72
2022/03/05 09:14:07;;;;;;;17.13;15.40;;;;;;;2.46;75.79;100866.97;10441429;28;20100;-71
2022/03/05 09:19:08;;;;;;;16.88;15.45;;;;;;;2.69;75.70;100863.81;10460323;28;20083;-70
2022/03/05 09:24:10;;;;;;;16.35;14.85;;;;;;;2.31;76.79;100858.97;10461234;28;20069;-70
2022/03/05 09:29:12;;;;;;;20.33;18.02;;;;;;;2.12;79.09;100863.00;10443035;28;20095;-70
2022/03/05 09:34:13;;;;;;;17.73;15.63;;;;;;;2.05;77.43;100852.53;10460939;28;20095;-71
2022/03/05 09:39:15;;;;;;;19.35;17.23;;;;;;;1.82;78.67;100852.16;10460965;28;20047;-70
2022/03/05 09:44:17;;;;;;;18.00;16.40;;;;;;;1.91;77.91;100844.53;10460087;28;20041;-71
2022/03/05 09:49:18;;;;;;;16.83;15.23;;;;;;;2.57;77.21;100835.09;10459303;28;20552;-70
2022/03/05 09:54:20;;;;;;;13.38;12.07;;;;;;;2.67;74.46;100860.34;10478745;22;20049;-72
2022/03/05 09:59:22;;;;;;;14.38;13.15;;;;;;;2.53;74.99;100858.44;10501695;28;20482;-70
2022/03/05 10:04:25;;;;;;;14.85;13.65;;;;;;;2.59;74.87;100862.84;10503260;28;20489;-71
2022/03/05 10:09:26;;;;;;;15.55;11.48;;;;;;;2.74;72.31;100862.16;10510248;28;20048;-70
2022/03/05 10:14:28;;;;;;;12.77;11.68;;;;;;;2.93;72.08;100861.56;10511123;28;20044;-70
2022/03/05 10:19:30;;;;;;;12.18;11.07;;;;;;;3.17;70.97;100862.69;10509180;28;20424;-71
2022/03/05 10:24:33;;;;;;;13.80;11.15;;;;;;;3.69;68.40;100864.13;10508028;28;20131;-72
2022/03/05 10:29:39;;;;;;;11.80;10.70;;;;;;;3.73;67.13;100858.09;10508490;28;20093;-72
2022/03/05 10:34:41;;;;;;;10.38;9.18;;;;;;;3.60;67.10;100852.78;10509133;28;20040;-70
2022/03/05 10:39:46;;;;;;;9.13;8.00;;;;;;;4.15;65.78;100845.44;10508461;28;20452;-71
2022/03/05 10:45:08;;;;;;;9.45;8.15;;;;;;;4.71;62.62;100835.38;10508329;28;20390;-71
2022/03/05 10:50:15;;;;;;;10.50;9.15;;;;;;;4.93;62.11;100835.47;10508098;28;20401;-71
2022/03/05 10:55:25;;;;;;;10.40;9.27;;;;;;;5.65;62.75;100817.38;10489572;28;20044;-71
2022/03/05 11:00:28;;;;;;;10.18;8.07;;;;;;;6.21;58.44;100816.53;10506110;28;20048;-71
2022/03/05 11:05:31;;;;;;;8.10;7.30;;;;;;;6.17;59.30;100813.06;10489080;28;20405;-71
2022/03/05 11:10:33;;;;;;;6.55;5.95;;;;;;;6.41;54.66;100798.22;10506211;28;20040;-71
2022/03/05 11:15:35;;;;;;;6.70;5.18;;;;;;;6.30;54.78;100796.50;10489486;28;20520;-71
2022/03/05 11:20:37;;;;;;;5.93;5.10;;;;;;;5.89;56.76;100795.63;10506695;28;20048;-71
2022/03/05 11:25:40;;;;;;;5.15;4.00;;;;;;;5.69;55.71;100800.88;10507560;28;20131;-72
2022/03/05 11:30:43;;;;;;;5.10;4.47;;;;;;;4.78;57.86;100795.47;10506149;28;20110;-73
2022/03/05 11:35:45;;;;;;;6.82;5.90;;;;;;;4.61;59.25;100797.13;10506849;28;20044;-72
2022/03/05 11:40:46;;;;;;;6.82;6.22;;;;;;;4.65;58.65;100790.19;10506303;28;20036;-72
2022/03/05 11:46:03;;;;;;;8.80;7.90;;;;;;;4.58;59.87;100801.44;10488878;28;20514;-73
2022/03/05 11:51:14;;;;;;;9.57;8.57;;;;;;;4.53;59.57;100785.81;10488262;28;20067;-73
2022/03/05 11:56:22;;;;;;;9.98;8.88;;;;;;;4.79;59.30;100792.00;10488524;28;20476;-73
2022/03/05 12:01:33;;;;;;;7.70;6.90;;;;;;;4.58;57.48;100796.25;10488727;28;20421;-72
2022/03/05 12:06:43;;;;;;;6.78;6.15;;;;;;;4.50;57.53;100793.59;10505929;28;20040;-74
2022/03/05 12:11:54;;;;;;;7.15;6.45;;;;;;;4.47;57.20;100786.66;10504813;28;20451;-74
2022/03/05 12:17:07;;;;;;;6.38;5.78;;;;;;;4.53;55.75;100781.47;10505697;28;20101;-74
2022/03/05 12:22:13;;;;;;;5.75;5.22;;;;;;;4.50;54.54;100784.03;10505700;28;20465;-74
2022/03/05 12:27:17;;;;;;;6.03;5.13;;;;;;;4.50;55.31;100768.41;10504390;28;20075;-72
2022/03/05 12:32:28;;;;;;;6.57;5.97;;;;;;;4.19;56.09;100766.53;10503721;28;20512;-72
2022/03/05 12:37:31;;;;;;;6.50;5.90;;;;;;;4.50;56.56;100764.94;10486860;28;20109;-73
2022/03/05 12:42:38;;;;;;;4.95;4.45;;;;;;;4.65;52.95;100757.22;10504088;28;20066;-72
2022/03/05 12:47:40;;;;;;;4.60;3.95;;;;;;;4.59;53.00;100746.75;10503907;28;20544;-74
2022/03/05 12:52:56;;;;;;;6.18;5.05;;;;;;;4.59;54.25;100743.28;10502875;28;20098;-73
2022/03/05 12:58:02;;;;;;;6.28;5.68;;;;;;;5.02;52.84;100741.69;10503103;28;20094;-72
2022/03/05 13:03:05;;;;;;;;;;;;;;;5.07;52.57;100734.75;10502948;28;20052;-73
2022/03/05 13:08:12;;;;;;;7.85;7.05;;;;;;;4.80;54.24;100730.34;10501833;28;19927;-73
2022/03/05 13:13:14;;;;;;;6.55;5.95;;;;;;;5.31;54.10;100724.38;10502354;28;20098;-73
2022/03/05 13:18:17;;;;;;;6.65;6.05;;;;;;;5.77;50.98;100726.97;10500241;28;20044;-72
2022/03/05 13:23:22;;;;;;;6.50;5.88;;;;;;;5.72;50.12;100730.44;10500996;28;20049;-71
2022/03/05 13:28:28;;;;;;;6.57;5.97;;;;;;;5.40;50.38;100723.50;10501151;28;20048;-72
2022/03/05 13:33:48;;;;;;;5.23;4.73;;;;;;;5.05;51.79;100729.56;10501389;28;20052;-71
2022/03/05 13:38:51;;;;;;;6.30;5.07;;;;;;;4.65;51.06;100735.50;10501983;28;20041;-73
2022/03/05 13:43:53;;;;;;;4.15;3.75;;;;;;;4.63;49.82;100738.09;10501251;28;20044;-73
2022/03/05 13:49:00;;;;;;;6.13;4.32;;;;;;;4.52;48.41;100734.59;10500539;28;20044;-72
2022/03/05 13:54:08;;;;;;;4.70;4.00;;;;;;;4.62;49.37;100736.38;10502472;28;20048;-73
2022/03/05 13:59:12;;;;;;;5.78;4.03;;;;;;;4.40;49.82;100727.59;10500996;28;20046;-73
2022/03/05 14:04:16;;;;;;;4.00;3.03;;;;;;;4.26;49.58;100732.75;10492475;28;20041;-74
2022/03/05 14:09:32;;;;;;;2.88;2.55;;;;;;;4.04;48.88;100726.56;10481984;28;20482;-71
2022/03/05 14:15:10;;;;;;;3.70;2.38;;;;;;;4.16;49.21;100730.06;10501371;28;20397;-72
2022/03/05 14:20:26;;;;;;;4.13;2.53;;;;;;;4.04;49.30;100731.75;10483243;28;20051;-72
2022/03/05 14:25:40;;;;;;;3.08;2.80;;;;;;;3.99;51.48;100730.88;10502157;28;20452;-72
2022/03/05 14:30:43;;;;;;;3.42;2.85;;;;;;;3.87;51.50;100728.19;10500314;28;20041;-72
2022/03/05 14:35:46;;;;;;;3.47;3.17;;;;;;;3.88;51.45;100729.03;10499533;28;20083;-72
2022/03/05 14:40:48;;;;;;;4.88;3.55;;;;;;;3.57;52.32;100722.75;10498656;28;20031;-73
2022/03/05 14:45:49;;;;;;;5.25;4.00;;;;;;;3.57;52.46;100727.94;10499645;28;20044;-71
2022/03/05 14:50:51;;;;;;;4.95;4.00;;;;;;;3.60;52.98;100728.00;10498710;28;20044;-72
2022/03/05 14:55:53;;;;;;;4.38;3.65;;;;;;;3.52;53.19;100728.78;10504782;28;20452;-71
2022/03/05 15:00:55;;;;;;;5.07;3.88;;;;;;;3.64;53.15;100733.22;10488758;28;20045;-71
2022/03/05 15:05:56;;;;;;;5.45;4.03;;;;;;;3.64;53.78;100721.97;10507359;28;20106;-73
2022/03/05 15:10:58;;;;;;;5.18;4.75;;;;;;;3.70;53.20;100719.38;10505422;28;20048;-72
2022/03/05 15:16:00;;;;;;;5.45;3.75;;;;;;;3.56;54.23;100723.63;10481788;28;20048;-72
2022/03/05 15:21:02;;;;;;;5.75;5.13;;;;;;;3.51;55.01;100724.44;10488480;28;20055;-71
2022/03/05 15:26:03;;;;;;;6.00;5.40;;;;;;;3.26;55.62;100727.69;10506114;28;20394;-73
2022/03/05 15:31:09;;;;;;;9.90;6.18;;;;;;;3.41;55.52;100727.84;10506860;28;20035;-72
2022/03/05 15:36:11;;;;;;;6.30;5.70;;;;;;;3.28;55.34;100723.41;10506016;28;20090;-72
2022/03/05 15:41:13;;;;;;;7.57;5.43;;;;;;;3.47;54.81;100716.63;10488166;28;20045;-73
2022/03/05 15:46:15;;;;;;;6.47;5.78;;;;;;;3.46;55.28;100713.16;10507402;28;20064;-72
2022/03/05 15:51:17;;;;;;;6.40;5.80;;;;;;;3.51;54.79;100705.38;10505599;28;20040;-72
2022/03/05 15:56:19;;;;;;;11.00;7.10;;;;;;;3.48;55.05;100703.63;10504463;28;20494;-70
2022/03/05 16:01:21;;;;;;;7.00;5.97;;;;;;;3.43;55.39;100710.53;10504811;28;20551;-72
2022/03/05 16:06:23;;;;;;;7.40;6.65;;;;;;;3.44;55.06;100711.38;10503123;28;20063;-73
2022/03/05 16:11:25;;;;;;;6.32;5.72;;;;;;;3.35;55.74;100713.91;10504974;28;20043;-71
2022/03/05 16:16:27;;;;;;;6.78;6.07;;;;;;;3.51;55.05;100702.78;10486386;28;20044;-71
2022/03/05 16:21:28;;;;;;;6.75;6.03;;;;;;;3.31;55.43;100706.94;10504510;28;20044;-72
2022/03/05 16:26:35;;;;;;;;;;;;;;;3.31;55.75;100712.16;10504514;28;20052;-70
2022/03/05 16:31:37;;;;;;;6.35;5.75;;;;;;;3.27;55.68;100717.31;10504840;28;19970;-72
2022/03/05 16:36:39;;;;;;;7.25;6.40;;;;;;;3.37;55.13;100710.47;10503913;28;20047;-71
2022/03/05 16:41:41;;;;;;;8.13;7.05;;;;;;;3.22;55.82;100712.94;10502993;28;20051;-70
2022/03/05 16:46:44;;;;;;;8.95;7.78;;;;;;;3.10;55.96;100710.22;10485606;28;20052;-71
2022/03/05 16:51:47;;;;;;;7.68;6.97;;;;;;;3.18;56.44;100712.03;10505873;28;20064;-71
2022/03/05 16:56:48;;;;;;;8.40;7.50;;;;;;;2.90;57.48;100712.63;10502473;28;20414;-71
2022/03/05 17:01:50;;;;;;;9.98;7.78;;;;;;;2.86;57.89;100709.13;10484936;28;20113;-72
2022/03/05 17:06:53;;;;;;;9.65;8.65;;;;;;;2.68;58.66;100711.53;10502658;28;20056;-71
2022/03/05 17:11:54;;;;;;;12.95;11.35;;;;;;;2.52;59.16;100707.88;10502868;28;20040;-71
2022/03/05 17:16:56;;;;;;;9.10;8.23;;;;;;;2.55;59.16;100710.50;10503240;28;20049;-71
2022/03/05 17:21:58;;;;;;;9.00;8.20;;;;;;;2.49;59.25;100713.06;10503190;28;20452;-73
2022/03/05 17:26:59;;;;;;;9.43;8.45;;;;;;;2.33;59.69;100709.38;10502387;28;20052;-71
2022/03/05 17:32:01;;;;;;;10.43;9.43;;;;;;;2.31;59.58;100705.91;10502380;28;20051;-71
2022/03/05 17:37:03;;;;;;;10.70;8.38;;;;;;;2.35;60.17;100701.66;10484040;28;20150;-71
2022/03/05 17:42:07;;;;;;;13.65;8.75;;;;;;;2.15;61.99;100707.44;10501572;28;20040;-71
2022/03/05 17:47:08;;;;;;;10.32;9.32;;;;;;;1.93;63.43;100706.25;10501031;28;20455;-71
2022/03/05 17:52:10;;;;;;;9.98;8.98;;;;;;;1.76;64.71;100713.78;10500724;28;20125;-71
2022/03/05 17:57:11;;;;;;;12.93;11.55;;;;;;;1.72;65.14;100718.91;10501588;28;20053;-72
2022/03/05 18:02:13;;;;;;;18.80;13.70;;;;;;;1.52;65.88;100728.97;10501451;28;20182;-72
2022/03/05 18:07:15;;;;;;;18.20;13.95;;;;;;;1.16;66.50;100742.19;10502103;28;20105;-71
2022/03/05 18:12:22;;;;;;;19.33;16.05;;;;;;;1.07;66.86;100748.09;10502096;28;20110;-71
2022/03/05 18:17:24;;;;;;;17.90;13.55;;;;;;;1.24;67.19;100754.44;10483671;28;20045;-71
2022/03/05 18:22:26;;;;;;;20.02;13.43;;;;;;;1.31;67.06;100755.41;10500259;28;20060;-72
2022/03/05 18:27:27;;;;;;;14.52;13.13;;;;;;;0.87;67.84;100752.88;10501781;28;20055;-70
2022/03/05 18:32:29;;;;;;;16.27;14.30;;;;;;;0.86;68.93;100758.03;10508686;28;20044;-72
2022/03/05 18:37:30;;;;;;;40.08;26.05;;;;;;;1.47;66.91;100748.78;10509066;28;20051;-71
2022/03/05 18:42:32;;;;;;;32.55;23.02;;;;;;;1.61;66.48;100741.22;10508661;28;20045;-71
2022/03/05 18:47:35;;;;;;;30.30;18.88;;;;;;;1.62;66.55;100736.03;10495841;28;20460;-71
2022/03/05 18:52:38;;;;;;;28.52;19.73;;;;;;;1.10;67.91;100739.47;10507650;28;20044;-70
2022/03/05 18:57:40;;;;;;;27.58;17.70;;;;;;;0.85;69.39;100748.53;10507988;28;20060;-71
2022/03/05 19:02:43;;;;;;;18.65;16.80;;;;;;;0.79;69.81;100745.81;10506265;28;20375;-70
2022/03/05 19:07:45;;;;;;;23.63;18.40;;;;;;;0.93;70.04;100749.50;10506489;28;20048;-72
2022/03/05 19:12:46;;;;;;;18.50;16.65;;;;;;;1.31;69.38;100745.03;10506546;28;20086;-72
2022/03/05 19:17:48;;;;;;;19.38;17.45;;;;;;;1.02;71.01;100749.72;10507368;28;20040;-71
2022/03/05 19:22:50;;;;;;;23.23;18.88;;;;;;;0.93;71.31;100753.00;10507470;28;20127;-71
2022/03/05 19:27:52;;;;;;;25.42;20.45;;;;;;;1.02;71.45;100749.72;10505965;28;20080;-72
2022/03/05 19:32:55;;;;;;;23.10;20.38;;;;;;;1.69;68.98;100757.75;10489566;28;20048;-71
2022/03/05 19:38:00;;;;;;;36.63;22.10;;;;;;;1.70;67.63;100756.91;10505298;28;20090;-71
2022/03/05 19:43:02;;;;;;;35.38;23.35;;;;;;;1.13;68.97;100768.03;10506020;28;20067;-71
2022/03/05 19:48:05;;;;;;;39.13;24.50;;;;;;;0.88;70.54;100772.72;10504776;28;20048;-71
2022/03/05 19:53:07;;;;;;;49.17;31.70;;;;;;;0.69;70.94;100778.41;10505437;28;20106;-72
2022/03/05 19:58:09;;;;;;;41.05;27.85;;;;;;;0.53;71.78;100776.31;10504251;28;20211;-70
2022/03/05 20:03:10;;;;;;;41.30;27.75;;;;;;;0.87;71.22;100764.94;10504555;28;20405;-71
2022/03/05 20:08:13;;;;;;;37.95;24.75;;;;;;;0.98;70.12;100772.06;10504791;28;20579;-71
2022/03/05 20:13:14;;;;;;;32.95;25.58;;;;;;;0.63;71.19;100779.16;10505008;28;20106;-71
2022/03/05 20:18:16;;;;;;;37.55;25.40;;;;;;;0.56;72.55;100779.84;10503807;28;20044;-71
2022/03/05 20:23:18;;;;;;;25.65;20.98;;;;;;;0.59;71.33;100774.75;10504756;28;20131;-72
2022/03/05 20:28:19;;;;;;;22.70;20.25;;;;;;;0.48;72.43;100778.81;10504265;28;20054;-72
2022/03/05 20:33:21;;;;;;;22.42;20.17;;;;;;;0.52;71.46;100784.94;10503514;28;20036;-72
2022/03/05 20:38:24;;;;;;;22.10;19.55;;;;;;;0.47;71.99;100796.06;10502730;28;20552;-72
2022/03/05 20:43:25;;;;;;;23.52;20.10;;;;;;;0.52;71.46;100796.16;10503269;28;20049;-71
2022/03/05 20:48:27;;;;;;;25.02;20.30;;;;;;;0.70;70.56;100803.41;10503225;28;20045;-72
2022/03/05 20:53:29;;;;;;;29.88;21.95;;;;;;;0.16;72.00;100810.03;10501547;28;20052;-71
2022/03/05 20:58:30;;;;;;;29.60;22.25;;;;;;;0.20;73.02;100813.56;10502299;28;20494;-71
2022/03/05 21:03:33;;;;;;;23.02;20.60;;;;;;;0.26;73.19;100800.75;10502541;28;20052;-70
2022/03/05 21:08:35;;;;;;;25.30;20.48;;;;;;;0.02;74.16;100805.38;10501376;28;20093;-70
2022/03/05 21:13:36;;;;;;;24.90;16.77;;;;;;;0.05;73.41;100808.94;10502372;28;20040;-72
2022/03/05 21:18:38;;;;;;;18.67;15.95;;;;;;;-0.10;73.68;100808.56;10501974;28;20494;-70
2022/03/05 21:23:40;;;;;;;18.77;16.92;;;;;;;-0.29;74.14;100805.53;10502301;28;20079;-71
2022/03/05 21:28:42;;;;;;;16.73;15.23;;;;;;;-0.39;74.43;100813.03;10501344;28;20044;-71
2022/03/05 21:33:43;;;;;;;18.30;16.35;;;;;;;-0.35;74.39;100805.38;10502066;28;20040;-71
2022/03/05 21:38:45;;;;;;;17.92;16.10;;;;;;;-0.09;74.27;100808.59;10482470;28;20053;-70
2022/03/05 21:43:47;;;;;;;19.70;17.23;;;;;;;-0.33;74.65;100801.13;10501351;28;20037;-71
2022/03/05 21:48:49;;;;;;;18.65;16.45;;;;;;;-0.64;75.66;100803.78;10501618;28;20067;-71
2022/03/05 21:53:50;;;;;;;21.23;17.77;;;;;;;-0.79;76.05;100788.78;10500820;28;20439;-71
2022/03/05 21:58:52;;;;;;;27.08;19.05;;;;;;;-0.66;75.69;100797.72;10501014;28;20097;-73
2022/03/05 22:03:54;;;;;;;31.88;21.00;;;;;;;-0.79;75.76;100807.72;10501853;28;20044;-72
2022/03/05 22:08:55;;;;;;;23.75;20.52;;;;;;;-1.15;76.61;100811.84;10501821;28;20044;-73
2022/03/05 22:14:13;;;;;;;22.73;18.70;;;;;;;-1.34;77.57;100801.00;10500800;28;20040;-73
2022/03/05 22:19:15;;;;;;;20.50;18.42;;;;;;;-1.30;78.21;100800.28;10482507;28;20048;-73
2022/03/05 22:24:18;;;;;;;23.40;17.75;;;;;;;-1.38;78.45;100804.34;10501824;28;20548;-72
2022/03/05 22:29:20;;;;;;;26.30;18.00;;;;;;;-0.94;76.74;100803.81;10501837;28;20076;-72
2022/03/05 22:34:22;;;;;;;17.83;16.02;;;;;;;-1.00;76.45;100798.50;10500833;28;20052;-74
2022/03/05 22:39:24;;;;;;;18.35;16.00;;;;;;;-1.51;77.83;100797.06;10501241;28;20044;-73
2022/03/05 22:44:25;;;;;;;17.90;16.25;;;;;;;-1.78;79.19;100800.59;10500419;28;20090;-73
2022/03/05 22:49:27;;;;;;;24.95;19.15;;;;;;;-1.81;79.89;100797.94;10499103;28;20090;-71
2022/03/05 22:54:29;;;;;;;19.38;17.23;;;;;;;-1.78;79.82;100795.44;10499283;28;20044;-73
2022/03/05 22:59:30;;;;;;;17.38;15.70;;;;;;;-1.72;79.85;100792.19;10481304;28;20501;-72
2022/03/05 23:04:32;;;;;;;22.20;17.38;;;;;;;-1.56;79.20;100796.06;10481138;28;20071;-73
2022/03/05 23:09:35;;;;;;;16.77;15.07;;;;;;;-1.89;80.07;100786.50;10499326;28;20449;-72